»·PEaware :: N12819 KRDD-KOTH

N12819 :: KRDD-KOTH

FLIGHT INFORMATION

Flight Status: Arrived
Operator: Privately registered:
United States
More flights under this callsign
Pilot: Bob C. (7429)
Aircraft: PIPER PA-24 COMMANCHE
(PA24)
More flights by this aircraft type
Origin: KRDD Redding Mun
United States
Destination: KOTH North Bend Mun
United States
More flights between these airports :: More routes between these airports
Route: FJS OED DEROY
File this flight plan on PilotEdge
Remarks: Newbie
Altitude:
(Current/Filed)
10,000ft
Speed:
(Current/Filed)
140kts
Departed: 04-Nov-17 12:44 PM
Arrived: 04-Nov-17 02:17 PM
Distance/Time
Traveled:
195nm/1:33
Distance/Time
To Go:
Arrived

Flight Plot

Page will automatically refresh every two minutes.

Flight plan parsing failed; only flown route is shown


Map Options




Map Legend


Flown Route
Filed Route
Departure Airport
Arrival Airport
Navaid (VOR, NDB)
Fix

Horizontal Profiles

Position Reports

Time Latitude Longitude Heading Altitude Ground
Speed
04-Nov-17 12:33 40.505637 -122.299289 312 505ft 0kts
04-Nov-17 12:34 40.505641 -122.299295 312 505ft 0kts
04-Nov-17 12:35 40.505645 -122.299301 312 505ft 0kts
04-Nov-17 12:36 40.505649 -122.299306 312 505ft 0kts
04-Nov-17 12:37 40.505653 -122.299312 312 505ft 0kts
04-Nov-17 12:38 40.505656 -122.299317 312 505ft 0kts
04-Nov-17 12:39 40.505660 -122.299323 312 505ft 0kts
04-Nov-17 12:40 40.505893 -122.298595 155 505ft 9kts
04-Nov-17 12:41 40.502926 -122.297532 134 505ft 16kts
04-Nov-17 12:42 40.501555 -122.295967 140 505ft 0kts
04-Nov-17 12:43 40.501551 -122.295962 140 505ft 0kts
04-Nov-17 12:44 40.501546 -122.295957 140 505ft 0kts
04-Nov-17 12:45 40.501541 -122.295952 140 505ft 0kts
04-Nov-17 12:46 40.501537 -122.295948 140 505ft 0kts
04-Nov-17 12:47 40.501534 -122.295945 140 505ft 0kts
04-Nov-17 12:48 40.501237 -122.295242 50 505ft 1kts
04-Nov-17 12:49 40.519860 -122.295317 346 1438ft 94kts
04-Nov-17 12:50 40.544061 -122.309281 336 2881ft 101kts
04-Nov-17 12:51 40.571191 -122.323779 337 4239ft 106kts
04-Nov-17 12:52 40.598437 -122.339773 327 5500ft 107kts
04-Nov-17 12:53 40.624941 -122.356583 335 6641ft 109kts
04-Nov-17 12:54 40.653811 -122.371280 334 7708ft 111kts
04-Nov-17 12:55 40.682716 -122.387190 335 8675ft 113kts
04-Nov-17 12:56 40.712329 -122.402588 333 9559ft 114kts
04-Nov-17 12:57 40.743537 -122.420076 332 10068ft 135kts
04-Nov-17 12:58 40.781383 -122.440348 334 10039ft 148kts
04-Nov-17 12:59 40.819668 -122.461388 333 10029ft 148kts
04-Nov-17 13:00 40.857866 -122.481606 334 10029ft 148kts
04-Nov-17 13:01 40.895646 -122.502586 333 10032ft 147kts
04-Nov-17 13:02 40.933672 -122.522980 335 10034ft 147kts
04-Nov-17 13:03 40.971363 -122.543514 333 10033ft 146kts
04-Nov-17 13:04 41.008804 -122.564426 334 10031ft 146kts
04-Nov-17 13:05 41.046562 -122.584396 334 10029ft 145kts
04-Nov-17 13:06 41.083767 -122.605238 333 10027ft 145kts
04-Nov-17 13:07 41.121295 -122.625421 335 10026ft 145kts
04-Nov-17 13:08 41.158384 -122.646000 332 10024ft 144kts
04-Nov-17 13:09 41.195375 -122.666430 335 10024ft 144kts
04-Nov-17 13:10 41.232570 -122.686373 333 10024ft 143kts
04-Nov-17 13:11 41.269212 -122.707166 334 10026ft 143kts
04-Nov-17 13:12 41.306249 -122.727080 334 10027ft 143kts
04-Nov-17 13:13 41.342870 -122.747793 334 10034ft 143kts
04-Nov-17 13:14 41.379777 -122.767680 335 10036ft 143kts
04-Nov-17 13:15 41.416551 -122.788215 334 10039ft 142kts
04-Nov-17 13:16 41.453221 -122.808502 335 10042ft 142kts
04-Nov-17 13:17 41.492531 -122.816210 359 10044ft 145kts
04-Nov-17 13:18 41.533050 -122.813780 357 10044ft 145kts
04-Nov-17 13:19 41.573106 -122.817731 350 10046ft 144kts
04-Nov-17 13:20 41.613111 -122.823592 351 10047ft 144kts
04-Nov-17 13:21 41.653124 -122.827747 353 10046ft 144kts
04-Nov-17 13:22 41.693206 -122.831160 353 10047ft 144kts
04-Nov-17 13:23 41.733354 -122.835394 352 10049ft 144kts
04-Nov-17 13:24 41.773306 -122.839665 352 10053ft 144kts
04-Nov-17 13:25 41.813196 -122.843780 352 10059ft 144kts
04-Nov-17 13:26 41.853241 -122.847807 352 10061ft 144kts
04-Nov-17 13:27 41.893145 -122.851931 352 10064ft 143kts
04-Nov-17 13:28 41.933126 -122.856237 353 10066ft 144kts
04-Nov-17 13:29 41.973024 -122.860017 352 10072ft 143kts
04-Nov-17 13:30 42.012811 -122.864368 352 10078ft 143kts
04-Nov-17 13:31 42.052455 -122.868041 352 10082ft 142kts
04-Nov-17 13:32 42.091696 -122.872511 351 10087ft 141kts
04-Nov-17 13:33 42.130976 -122.876687 352 10093ft 141kts
04-Nov-17 13:34 42.170418 -122.880563 351 10097ft 141kts
04-Nov-17 13:35 42.209317 -122.884839 352 10102ft 141kts
04-Nov-17 13:36 42.242072 -122.887938 352 10105ft 141kts
04-Nov-17 13:37 42.281441 -122.892379 351 10110ft 141kts
04-Nov-17 13:38 42.327277 -122.896901 352 10113ft 141kts
04-Nov-17 13:39 42.366665 -122.901284 352 10114ft 141kts
04-Nov-17 13:40 42.399452 -122.904488 352 10115ft 141kts
04-Nov-17 13:41 42.445262 -122.909529 351 10113ft 141kts
04-Nov-17 13:42 42.484696 -122.913767 349 10109ft 141kts
04-Nov-17 13:43 42.514155 -122.930514 320 10105ft 138kts
04-Nov-17 13:44 42.535533 -122.972810 290 10077ft 138kts
04-Nov-17 13:45 42.552751 -123.018754 309 10075ft 137kts
04-Nov-17 13:46 42.587757 -123.056489 322 10062ft 138kts
04-Nov-17 13:47 42.612298 -123.084283 315 10056ft 137kts
04-Nov-17 13:48 42.638760 -123.122059 312 10046ft 137kts
04-Nov-17 13:49 42.665497 -123.159233 314 10040ft 137kts
04-Nov-17 13:50 42.693411 -123.195084 316 10037ft 137kts
04-Nov-17 13:51 42.721028 -123.231012 314 10037ft 137kts
04-Nov-17 13:52 42.748189 -123.267811 314 10037ft 137kts
04-Nov-17 13:53 42.775592 -123.303958 315 10039ft 137kts
04-Nov-17 13:54 42.802822 -123.340338 314 10043ft 137kts
04-Nov-17 13:55 42.830198 -123.376772 315 10048ft 137kts
04-Nov-17 13:56 42.857432 -123.413075 314 10055ft 136kts
04-Nov-17 13:57 42.884458 -123.449322 314 10061ft 136kts
04-Nov-17 13:58 42.911634 -123.485541 314 10069ft 136kts
04-Nov-17 13:59 42.938612 -123.521840 314 10077ft 136kts
04-Nov-17 14:00 42.966150 -123.558606 314 9559ft 146kts
04-Nov-17 14:01 42.996197 -123.599022 314 8303ft 148kts
04-Nov-17 14:02 43.024903 -123.637700 314 7092ft 144kts
04-Nov-17 14:03 43.052892 -123.675414 314 5973ft 136kts
04-Nov-17 14:04 43.079010 -123.710541 314 6022ft 132kts
04-Nov-17 14:05 43.105139 -123.745915 314 6033ft 134kts
04-Nov-17 14:06 43.131743 -123.781879 314 6017ft 132kts
04-Nov-17 14:07 43.157708 -123.817080 314 6006ft 130kts
04-Nov-17 14:08 43.183460 -123.852242 313 6007ft 130kts
04-Nov-17 14:09 43.210779 -123.889087 314 5178ft 143kts
04-Nov-17 14:10 43.238085 -123.926063 312 5058ft 134kts
04-Nov-17 14:11 43.265432 -123.963530 313 4128ft 142kts
04-Nov-17 14:12 43.289545 -124.001222 301 3994ft 125kts
04-Nov-17 14:13 43.312769 -124.035176 314 3988ft 120kts
04-Nov-17 14:14 43.336833 -124.066981 314 3986ft 119kts
04-Nov-17 14:15 43.360832 -124.096377 322 3613ft 109kts
04-Nov-17 14:16 43.383579 -124.124025 313 2342ft 103kts
04-Nov-17 14:17 43.405354 -124.143252 326 1668ft 87kts
04-Nov-17 14:18 43.426569 -124.157819 295 1621ft 86kts
04-Nov-17 14:19 43.426037 -124.186913 272 1122ft 71kts
04-Nov-17 14:20 43.431512 -124.213658 273 590ft 72kts
04-Nov-17 14:21 43.424164 -124.237463 239 56ft 68kts
04-Nov-17 14:22 43.418838 -124.250276 236 11ft 10kts
04-Nov-17 14:23 43.417696 -124.250666 63 11ft 13kts
04-Nov-17 14:24 43.418325 -124.246331 154 11ft 18kts
04-Nov-17 14:25 43.415850 -124.246018 178 11ft 0kts
04-Nov-17 14:26 43.415849 -124.246018 178 11ft 0kts

Navigation Log

Ident Type
Flight plan parsing failed, navigation log unavailable